Terminal Aerodrome Forecast
Issued by NWS Missoula, MT

Current Version | Previous Version | Text Only | Print | Product List | Glossary On
Versions: 1 2 3 4 5 6 7 8 9 10 11 12 13 14 15 16 17 18
084
FTUS45 KMSO 250042 AAA
TAFBTM
TAF AMD
KBTM 250042Z 2501/2524 18021G28KT P6SM OVC080
     FM250600 20007KT P6SM -SHRA BKN050 OVC070
     FM251200 31012G22KT 4SM -SHSN BKN030
     FM251800 29009KT P6SM VCSH OVC050=

USA.gov is the U.S. government's official web portal to all federal, state and local government web resources and services.